Arcata Airport
KACV : rendu visible

Aérodrome :











RETROUVEZ-NOUS SUR...

 
LOGIN :

S'inscrire | Disclaimer

   EN    FR    IT 

 









Légende :    VFR   VFR Marginal   IFR   IFR Intensif   IFR Très Intensif
Visi : 
Plafond : 
>= 8 km
>= 3000ft
5 à 8 km
1000 à 3000 ft
1500m à 5 km
500 à 1000 ft
800 à 1500m
200 à 500 ft
< 800m
< 200 ft
Symboles :   Orages  Brouillard  Fortes neiges  Fortes précipitations  Vent > 20 kt






- Altitude de l'aérodrome : 221 ft
- Code IATA : ACV


KACV - Arcata

DERNIER METAR :
  • 251853Z AUTO 31010KT 10SM CLR 14/11 A3007 RMK AO2 SLP188 T01440111

METARs EXPIRÉS :
  • 251753Z AUTO 31008KT 9SM CLR 14/11 A3007 RMK AO2 SLP189 T01390111 10150 20083 53003
  • 251653Z AUTO 28007KT 9SM CLR 14/11 A3007 RMK AO2 SLP187 T01440111

TAF KACV
Valide du 25 à 18h jusqu'au 26 à 18h UTC


251738Z 2518/2618 30010KT P6SM FEW007 SCT250
TEMPO 2520/2524 32012G17KT P6SM SCT007 BKN250
FM260400 34005KT P6SM BKN007
FM260900 VRB03KT 4SM BR OVC007
FM261300 VRB03KT 1SM BR OVC005
FIR KZSE / Amérique du Nord



MET'MAP, la Météo Aéronautique d'un coup d'oeil ! - Copyright ORBIFLY Décembre 2007 - Disclaimer

ORBIFLY MET'MAP TEAM :

Programmation & Développement : Alexandra Zaïnal
Sur une idée originale de : Baudouin d'Aumeries
Assistance à la programmation : Marc-Olivier Méhu
Soutien technique & logistique : Manuel Goepfert

Contact : metmap@orbifly.com




SOURCES & CREDITS :

   NOAA       Earth
Advisory